Meath Environmental Platform

Observations for Trim Market St

Time AQI Temp °C Hum % Pres Pa CO μg/m³ H₂S μg/m³ NO μg/m³ NO₂ μg/m³ O₃ μg/m³ SO₂ μg/m³ PM1 μg/m³ PM2.5 μg/m³ PM10 μg/m³
Wednesday 15 July 2026
08:13 1 24.7 58 57,695 0.08 0 0 0 0 0 10.69 13.66 18.67
08:12 1 24.7 58 57,687 0.09 0 0 0 0 0 11.4 13.64 18.65
08:11 1 24.7 59 57,674 0.1 0 0 0 0 0 9.26 13.64 19.34
08:09 1 24.7 59 57,656 0.11 0 0 0 0 0 9.98 13.6 19.29
08:04 1 24.4 60 57,565 0.13 0 0 0 0 0 9.98 14 19.84
08:02 1 24.2 61 57,535 0.11 0 0 0 2.7 0 9.26 15.47 21.16
08:01 1 24.1 61 57,517 0.1 0 0 0 2.06 0 9.26 12.96 19.77
07:54 1 23.7 62 57,410 0.14 0 0.74 0 0 0 10.69 15.34 23.66
07:53 1 23.6 63 57,383 0.18 0 0 0 0 0 11.4 14.33 22.29
07:52 1 23.5 63 57,353 0.18 0 0.25 0 0 0 9.26 12.82 18.23
07:51 1 23.5 63 57,320 0.19 0 0 0 0 0 7.13 10.31 14.87
07:50 1 23.4 64 57,279 0.21 0 0 0 0 0 9.98 14.75 21.5
07:49 1 23.3 64 57,234 0.22 0 1.48 0.53 0 0 9.26 14.73 20.8
07:48 1 23.3 64 57,181 0.21 0 0.09 0 0 0 9.98 13.72 19.45
07:46 1 23.1 65 57,062 0.22 0 0 0 0 0 8.55 12.69 20.05
07:45 1 23.1 65 56,994 0.25 0 0.04 0 0 0 8.55 12.67 20.67
07:44 1 23 65 56,928 0.23 0 0.4 0 0.77 0 9.98 13.14 18.01
07:39 1 22.6 67 56,489 0.25 0 0.53 0.17 0 0 7.84 12.53 17.22
07:35 1 22.3 68 55,870 0.25 0 0 1.71 1.57 0 7.13 9.99 15.19
07:34 1 22.2 68 55,688 0.27 0 1.13 2.8 0 0 9.26 13.87 20.26